sensor_id;sensor_type;location;lat;lon;timestamp;pressure;altitude;pressure_sealevel;temperature;humidity
69855;BME280;57146;48.140;16.304;2023-04-12T00:02:21;99136.00;;;6.88;75.08
69855;BME280;57146;48.140;16.304;2023-04-12T00:04:49;99133.41;;;6.88;75.17
69855;BME280;57146;48.140;16.304;2023-04-12T00:07:16;99132.88;;;6.86;75.51
69855;BME280;57146;48.140;16.304;2023-04-12T00:09:43;99125.84;;;6.87;75.47
69855;BME280;57146;48.140;16.304;2023-04-12T00:12:10;99124.78;;;6.88;75.51
69855;BME280;57146;48.140;16.304;2023-04-12T00:14:37;99117.47;;;6.85;75.51
69855;BME280;57146;48.140;16.304;2023-04-12T00:17:04;99123.47;;;6.85;75.54
69855;BME280;57146;48.140;16.304;2023-04-12T00:19:30;99119.31;;;6.84;75.34
69855;BME280;57146;48.140;16.304;2023-04-12T00:21:57;99112.56;;;6.78;75.34
69855;BME280;57146;48.140;16.304;2023-04-12T00:24:24;99107.88;;;6.75;75.50
69855;BME280;57146;48.140;16.304;2023-04-12T00:26:51;99106.34;;;6.74;75.34
69855;BME280;57146;48.140;16.304;2023-04-12T00:29:18;99099.09;;;6.66;76.06
69855;BME280;57146;48.140;16.304;2023-04-12T00:31:47;99102.75;;;6.65;75.87
69855;BME280;57146;48.140;16.304;2023-04-12T00:34:14;99099.66;;;6.63;76.76
69855;BME280;57146;48.140;16.304;2023-04-12T00:36:43;99092.28;;;6.65;76.73
69855;BME280;57146;48.140;16.304;2023-04-12T00:39:11;99087.88;;;6.65;76.79
69855;BME280;57146;48.140;16.304;2023-04-12T00:41:43;99086.34;;;6.59;77.00
69855;BME280;57146;48.140;16.304;2023-04-12T00:44:12;99081.38;;;6.58;77.18
69855;BME280;57146;48.140;16.304;2023-04-12T00:46:39;99087.69;;;6.57;77.52
69855;BME280;57146;48.140;16.304;2023-04-12T00:49:06;99089.53;;;6.56;77.38
69855;BME280;57146;48.140;16.304;2023-04-12T00:51:33;99082.97;;;6.59;77.38
69855;BME280;57146;48.140;16.304;2023-04-12T00:54:00;99083.50;;;6.56;77.69
69855;BME280;57146;48.140;16.304;2023-04-12T00:56:31;99080.38;;;6.54;77.80
69855;BME280;57146;48.140;16.304;2023-04-12T00:58:58;99080.44;;;6.48;78.00
69855;BME280;57146;48.140;16.304;2023-04-12T01:01:28;99077.31;;;6.46;78.07
69855;BME280;57146;48.140;16.304;2023-04-12T01:03:55;99075.22;;;6.48;77.95
69855;BME280;57146;48.140;16.304;2023-04-12T01:06:36;99066.84;;;6.46;78.00
69855;BME280;57146;48.140;16.304;2023-04-12T01:09:41;99068.44;;;6.47;77.70
69855;BME280;57146;48.140;16.304;2023-04-12T01:15:14;99056.91;;;6.48;77.47
69855;BME280;57146;48.140;16.304;2023-04-12T01:18:04;99054.84;;;6.45;77.46
69855;BME280;57146;48.140;16.304;2023-04-12T01:20:43;99047.28;;;6.44;77.25
69855;BME280;57146;48.140;16.304;2023-04-12T01:23:39;99048.06;;;6.44;76.84
69855;BME280;57146;48.140;16.304;2023-04-12T01:26:30;99050.16;;;6.42;76.65
69855;BME280;57146;48.140;16.304;2023-04-12T01:29:03;99049.91;;;6.44;76.61
69855;BME280;57146;48.140;16.304;2023-04-12T01:31:34;99043.16;;;6.38;76.49
69855;BME280;57146;48.140;16.304;2023-04-12T01:34:08;99045.03;;;6.32;76.39
69855;BME280;57146;48.140;16.304;2023-04-12T01:36:37;99043.81;;;6.24;76.92
69855;BME280;57146;48.140;16.304;2023-04-12T01:39:06;99042.75;;;6.26;76.83
69855;BME280;57146;48.140;16.304;2023-04-12T01:41:38;99043.28;;;6.22;77.18
69855;BME280;57146;48.140;16.304;2023-04-12T01:44:05;99034.72;;;6.17;76.80
69855;BME280;57146;48.140;16.304;2023-04-12T01:46:32;99042.56;;;6.17;77.19
69855;BME280;57146;48.140;16.304;2023-04-12T01:49:00;99043.34;;;6.17;77.05
69855;BME280;57146;48.140;16.304;2023-04-12T01:54:28;99041.47;;;6.23;76.77
69855;BME280;57146;48.140;16.304;2023-04-12T01:56:59;99045.66;;;6.24;76.51
69855;BME280;57146;48.140;16.304;2023-04-12T01:59:38;99038.88;;;6.23;76.31
69855;BME280;57146;48.140;16.304;2023-04-12T02:02:06;99042.50;;;6.22;76.46
69855;BME280;57146;48.140;16.304;2023-04-12T02:04:34;99041.25;;;6.19;76.00
69855;BME280;57146;48.140;16.304;2023-04-12T02:07:03;99042.28;;;6.18;76.43
69855;BME280;57146;48.140;16.304;2023-04-12T02:09:38;99035.50;;;6.17;76.09
69855;BME280;57146;48.140;16.304;2023-04-12T02:12:07;99031.56;;;6.20;76.01
69855;BME280;57146;48.140;16.304;2023-04-12T02:14:35;99037.56;;;6.20;75.80
69855;BME280;57146;48.140;16.304;2023-04-12T02:17:02;99040.44;;;6.19;75.90
69855;BME280;57146;48.140;16.304;2023-04-12T02:19:29;99037.28;;;6.22;75.68
69855;BME280;57146;48.140;16.304;2023-04-12T02:21:57;99038.06;;;6.22;75.77
69855;BME280;57146;48.140;16.304;2023-04-12T02:24:24;99035.75;;;6.21;75.68
69855;BME280;57146;48.140;16.304;2023-04-12T02:26:51;99032.59;;;6.19;76.08
69855;BME280;57146;48.140;16.304;2023-04-12T02:29:21;99029.53;;;6.12;76.27
69855;BME280;57146;48.140;16.304;2023-04-12T02:31:48;99025.47;;;6.00;77.02
69855;BME280;57146;48.140;16.304;2023-04-12T02:34:16;99020.75;;;6.03;76.68
69855;BME280;57146;48.140;16.304;2023-04-12T02:36:49;99016.00;;;6.05;76.96
69855;BME280;57146;48.140;16.304;2023-04-12T02:39:16;99020.22;;;6.06;77.01
69855;BME280;57146;48.140;16.304;2023-04-12T02:41:46;99018.63;;;6.05;76.90
69855;BME280;57146;48.140;16.304;2023-04-12T02:44:14;99019.97;;;6.02;77.20
69855;BME280;57146;48.140;16.304;2023-04-12T02:46:48;99027.06;;;5.96;76.96
69855;BME280;57146;48.140;16.304;2023-04-12T02:49:15;99024.75;;;5.90;76.98
69855;BME280;57146;48.140;16.304;2023-04-12T02:51:43;99021.41;;;5.84;77.21
69855;BME280;57146;48.140;16.304;2023-04-12T02:54:10;99023.50;;;5.82;77.22
69855;BME280;57146;48.140;16.304;2023-04-12T02:56:51;99011.53;;;5.76;77.12
69855;BME280;57146;48.140;16.304;2023-04-12T02:59:33;99015.19;;;5.75;76.96
69855;BME280;57146;48.140;16.304;2023-04-12T03:02:13;99020.47;;;5.70;77.95
69855;BME280;57146;48.140;16.304;2023-04-12T03:04:40;99021.19;;;5.75;77.37
69855;BME280;57146;48.140;16.304;2023-04-12T03:07:13;99010.53;;;5.72;77.53
69855;BME280;57146;48.140;16.304;2023-04-12T03:09:46;99008.97;;;5.71;77.69
69855;BME280;57146;48.140;16.304;2023-04-12T03:12:14;99008.97;;;5.71;77.19
69855;BME280;57146;48.140;16.304;2023-04-12T03:14:51;99010.59;;;5.62;77.64
69855;BME280;57146;48.140;16.304;2023-04-12T03:17:22;99010.34;;;5.63;77.62
69855;BME280;57146;48.140;16.304;2023-04-12T03:19:51;99014.88;;;5.47;77.88
69855;BME280;57146;48.140;16.304;2023-04-12T03:22:19;99006.50;;;5.50;77.53
69855;BME280;57146;48.140;16.304;2023-04-12T03:24:52;98997.72;;;5.41;78.11
69855;BME280;57146;48.140;16.304;2023-04-12T03:27:21;99006.84;;;5.39;77.86
69855;BME280;57146;48.140;16.304;2023-04-12T03:29:50;99001.09;;;5.37;77.71
69855;BME280;57146;48.140;16.304;2023-04-12T03:32:20;99000.41;;;5.26;78.13
69855;BME280;57146;48.140;16.304;2023-04-12T03:34:49;98999.38;;;5.22;77.82
69855;BME280;57146;48.140;16.304;2023-04-12T03:37:23;98999.97;;;5.14;78.20
69855;BME280;57146;48.140;16.304;2023-04-12T03:39:51;99002.59;;;5.09;78.38
69855;BME280;57146;48.140;16.304;2023-04-12T03:42:22;98995.63;;;4.94;78.91
69855;BME280;57146;48.140;16.304;2023-04-12T03:45:07;98998.22;;;4.94;78.79
69855;BME280;57146;48.140;16.304;2023-04-12T03:47:34;98994.66;;;4.79;78.90
69855;BME280;57146;48.140;16.304;2023-04-12T03:50:06;98998.03;;;4.85;79.47
69855;BME280;57146;48.140;16.304;2023-04-12T03:52:40;98998.50;;;4.92;79.10
69855;BME280;57146;48.140;16.304;2023-04-12T03:55:07;98989.63;;;4.98;78.28
69855;BME280;57146;48.140;16.304;2023-04-12T03:57:36;98998.72;;;5.01;78.64
69855;BME280;57146;48.140;16.304;2023-04-12T04:00:05;98994.84;;;4.93;78.76
69855;BME280;57146;48.140;16.304;2023-04-12T04:02:43;98992.97;;;5.04;77.69
69855;BME280;57146;48.140;16.304;2023-04-12T04:05:14;98986.44;;;5.07;77.97
69855;BME280;57146;48.140;16.304;2023-04-12T04:07:43;98991.41;;;5.03;77.94
69855;BME280;57146;48.140;16.304;2023-04-12T04:10:12;98999.81;;;4.95;78.28
69855;BME280;57146;48.140;16.304;2023-04-12T04:12:40;98988.38;;;4.86;78.38
69855;BME280;57146;48.140;16.304;2023-04-12T04:15:14;98995.50;;;4.65;78.71
69855;BME280;57146;48.140;16.304;2023-04-12T04:17:41;98986.13;;;4.59;78.77
69855;BME280;57146;48.140;16.304;2023-04-12T04:20:09;98978.06;;;4.60;78.56
69855;BME280;57146;48.140;16.304;2023-04-12T04:22:39;98983.25;;;4.55;79.03
69855;BME280;57146;48.140;16.304;2023-04-12T04:25:07;98988.97;;;4.62;79.07
69855;BME280;57146;48.140;16.304;2023-04-12T04:27:37;98985.88;;;4.55;79.63
69855;BME280;57146;48.140;16.304;2023-04-12T04:30:06;98982.47;;;4.65;78.99
69855;BME280;57146;48.140;16.304;2023-04-12T04:32:42;98976.75;;;4.57;79.11
69855;BME280;57146;48.140;16.304;2023-04-12T04:35:14;98983.56;;;4.48;79.43
69855;BME280;57146;48.140;16.304;2023-04-12T04:37:57;98986.69;;;4.50;80.19
69855;BME280;57146;48.140;16.304;2023-04-12T04:40:27;98985.63;;;4.51;80.24
69855;BME280;57146;48.140;16.304;2023-04-12T04:42:55;98987.97;;;4.53;79.61
69855;BME280;57146;48.140;16.304;2023-04-12T04:45:25;98994.50;;;4.55;80.33
69855;BME280;57146;48.140;16.304;2023-04-12T04:47:53;98984.25;;;4.69;80.16
69855;BME280;57146;48.140;16.304;2023-04-12T04:50:22;98987.84;;;4.89;78.84
69855;BME280;57146;48.140;16.304;2023-04-12T04:52:51;98990.44;;;4.89;78.96
69855;BME280;57146;48.140;16.304;2023-04-12T04:55:22;98978.84;;;5.05;78.06
69855;BME280;57146;48.140;16.304;2023-04-12T04:57:49;98979.09;;;5.09;78.71
69855;BME280;57146;48.140;16.304;2023-04-12T05:00:18;98987.41;;;5.16;78.00
69855;BME280;57146;48.140;16.304;2023-04-12T05:02:52;98981.47;;;5.10;78.18
69855;BME280;57146;48.140;16.304;2023-04-12T05:05:25;98991.91;;;5.05;79.11
69855;BME280;57146;48.140;16.304;2023-04-12T05:08:03;98988.75;;;5.13;78.99
69855;BME280;57146;48.140;16.304;2023-04-12T05:10:32;99001.75;;;5.18;78.85
69855;BME280;57146;48.140;16.304;2023-04-12T05:13:01;98995.47;;;5.24;78.16
69855;BME280;57146;48.140;16.304;2023-04-12T05:15:29;99005.66;;;5.21;79.26
69855;BME280;57146;48.140;16.304;2023-04-12T05:17:56;99004.06;;;5.25;79.60
69855;BME280;57146;48.140;16.304;2023-04-12T05:20:23;99003.53;;;5.28;79.39
69855;BME280;57146;48.140;16.304;2023-04-12T05:22:50;99013.88;;;5.43;78.98
69855;BME280;57146;48.140;16.304;2023-04-12T05:25:18;99014.06;;;5.52;78.46
69855;BME280;57146;48.140;16.304;2023-04-12T05:27:53;99008.22;;;5.65;77.19
69855;BME280;57146;48.140;16.304;2023-04-12T05:30:20;99008.88;;;5.81;76.36
69855;BME280;57146;48.140;16.304;2023-04-12T05:32:49;99022.41;;;5.88;76.43
69855;BME280;57146;48.140;16.304;2023-04-12T05:35:18;99011.53;;;6.10;73.74
69855;BME280;57146;48.140;16.304;2023-04-12T05:37:47;99010.13;;;6.23;74.45
69855;BME280;57146;48.140;16.304;2023-04-12T05:40:14;99005.34;;;6.30;74.51
69855;BME280;57146;48.140;16.304;2023-04-12T05:42:48;99008.94;;;6.34;74.53
69855;BME280;57146;48.140;16.304;2023-04-12T05:45:16;99003.94;;;6.38;73.99
69855;BME280;57146;48.140;16.304;2023-04-12T05:47:43;98999.09;;;6.50;74.96
69855;BME280;57146;48.140;16.304;2023-04-12T05:50:12;99006.81;;;6.60;74.71
69855;BME280;57146;48.140;16.304;2023-04-12T05:52:39;98998.00;;;6.75;74.65
69855;BME280;57146;48.140;16.304;2023-04-12T05:55:07;98995.16;;;6.95;72.92
69855;BME280;57146;48.140;16.304;2023-04-12T05:57:39;98997.56;;;7.11;72.33
69855;BME280;57146;48.140;16.304;2023-04-12T06:00:07;98993.72;;;7.22;72.28
69855;BME280;57146;48.140;16.304;2023-04-12T06:02:39;98993.88;;;7.31;72.35
69855;BME280;57146;48.140;16.304;2023-04-12T06:05:07;99001.28;;;7.42;72.30
69855;BME280;57146;48.140;16.304;2023-04-12T06:07:34;99003.03;;;7.66;69.95
69855;BME280;57146;48.140;16.304;2023-04-12T06:10:02;98999.50;;;7.76;70.30
69855;BME280;57146;48.140;16.304;2023-04-12T06:12:31;99000.66;;;7.83;68.92
69855;BME280;57146;48.140;16.304;2023-04-12T06:14:58;99000.78;;;7.92;68.62
69855;BME280;57146;48.140;16.304;2023-04-12T06:17:27;98999.25;;;8.05;67.19
69855;BME280;57146;48.140;16.304;2023-04-12T06:19:55;98992.75;;;8.16;67.23
69855;BME280;57146;48.140;16.304;2023-04-12T06:22:23;99001.13;;;8.32;67.30
69855;BME280;57146;48.140;16.304;2023-04-12T06:24:52;98991.75;;;8.45;66.02
69855;BME280;57146;48.140;16.304;2023-04-12T06:27:22;98996.28;;;8.53;65.03
69855;BME280;57146;48.140;16.304;2023-04-12T06:29:49;99003.38;;;8.66;65.79
69855;BME280;57146;48.140;16.304;2023-04-12T06:32:19;98997.81;;;8.81;65.79
69855;BME280;57146;48.140;16.304;2023-04-12T06:34:47;98992.94;;;8.88;65.04
69855;BME280;57146;48.140;16.304;2023-04-12T06:37:14;98990.66;;;9.09;64.83
69855;BME280;57146;48.140;16.304;2023-04-12T06:39:41;98994.75;;;9.16;64.11
69855;BME280;57146;48.140;16.304;2023-04-12T06:42:08;98994.81;;;9.24;64.93
69855;BME280;57146;48.140;16.304;2023-04-12T06:44:38;98990.41;;;9.33;64.20
69855;BME280;57146;48.140;16.304;2023-04-12T06:47:05;98992.03;;;9.43;62.52
69855;BME280;57146;48.140;16.304;2023-04-12T06:49:32;98990.53;;;9.51;63.01
69855;BME280;57146;48.140;16.304;2023-04-12T06:52:01;98983.06;;;9.44;61.50
69855;BME280;57146;48.140;16.304;2023-04-12T06:54:28;98989.41;;;9.66;61.22
69855;BME280;57146;48.140;16.304;2023-04-12T06:56:55;98987.88;;;9.73;63.14
69855;BME280;57146;48.140;16.304;2023-04-12T06:59:24;98987.97;;;9.82;61.41
69855;BME280;57146;48.140;16.304;2023-04-12T07:01:51;98973.75;;;9.92;61.51
69855;BME280;57146;48.140;16.304;2023-04-12T07:04:18;98973.50;;;10.02;60.98
69855;BME280;57146;48.140;16.304;2023-04-12T07:06:45;98968.28;;;10.11;60.28
69855;BME280;57146;48.140;16.304;2023-04-12T07:09:12;98969.25;;;10.23;58.89
69855;BME280;57146;48.140;16.304;2023-04-12T07:11:39;98957.03;;;10.19;57.08
69855;BME280;57146;48.140;16.304;2023-04-12T07:14:08;98957.25;;;10.31;57.39
69855;BME280;57146;48.140;16.304;2023-04-12T07:16:35;98950.91;;;10.32;59.46
69855;BME280;57146;48.140;16.304;2023-04-12T07:19:02;98944.91;;;10.40;60.11
69855;BME280;57146;48.140;16.304;2023-04-12T07:21:30;98948.03;;;10.51;57.66
69855;BME280;57146;48.140;16.304;2023-04-12T07:23:57;98934.56;;;10.61;57.39
69855;BME280;57146;48.140;16.304;2023-04-12T07:26:24;98943.72;;;10.72;57.37
69855;BME280;57146;48.140;16.304;2023-04-12T07:28:53;98936.91;;;10.80;57.56
69855;BME280;57146;48.140;16.304;2023-04-12T07:31:20;98933.06;;;10.86;59.96
69855;BME280;57146;48.140;16.304;2023-04-12T07:33:47;98933.81;;;10.95;58.74
69855;BME280;57146;48.140;16.304;2023-04-12T07:36:15;98923.91;;;11.01;57.98
69855;BME280;57146;48.140;16.304;2023-04-12T07:38:42;98927.16;;;10.98;56.03
69855;BME280;57146;48.140;16.304;2023-04-12T07:41:09;98917.69;;;10.88;55.00
69855;BME280;57146;48.140;16.304;2023-04-12T07:43:38;98913.53;;;11.05;56.04
69855;BME280;57146;48.140;16.304;2023-04-12T07:46:05;98910.44;;;11.11;55.54
69855;BME280;57146;48.140;16.304;2023-04-12T07:48:32;98904.69;;;11.09;53.39
69855;BME280;57146;48.140;16.304;2023-04-12T07:50:59;98914.28;;;11.22;52.52
69855;BME280;57146;48.140;16.304;2023-04-12T07:53:27;98906.84;;;11.24;52.10
69855;BME280;57146;48.140;16.304;2023-04-12T07:55:55;98908.69;;;11.33;52.59
69855;BME280;57146;48.140;16.304;2023-04-12T07:58:23;98895.63;;;11.45;50.95
69855;BME280;57146;48.140;16.304;2023-04-12T08:00:54;98902.47;;;11.37;51.76
69855;BME280;57146;48.140;16.304;2023-04-12T08:03:23;98902.34;;;11.42;53.00
69855;BME280;57146;48.140;16.304;2023-04-12T08:05:51;98901.06;;;11.48;51.03
69855;BME280;57146;48.140;16.304;2023-04-12T08:08:18;98893.13;;;11.57;53.06
69855;BME280;57146;48.140;16.304;2023-04-12T08:10:45;98882.75;;;11.61;50.44
69855;BME280;57146;48.140;16.304;2023-04-12T08:13:12;98887.63;;;11.80;50.81
69855;BME280;57146;48.140;16.304;2023-04-12T08:15:39;98881.72;;;11.83;48.11
69855;BME280;57146;48.140;16.304;2023-04-12T08:18:06;98880.03;;;11.78;48.96
69855;BME280;57146;48.140;16.304;2023-04-12T08:20:33;98878.44;;;11.94;48.91
69855;BME280;57146;48.140;16.304;2023-04-12T08:23:00;98882.63;;;11.95;49.27
69855;BME280;57146;48.140;16.304;2023-04-12T08:25:27;98880.50;;;11.89;49.58
69855;BME280;57146;48.140;16.304;2023-04-12T08:27:54;98877.53;;;11.90;49.47
69855;BME280;57146;48.140;16.304;2023-04-12T08:30:23;98885.94;;;11.84;49.16
69855;BME280;57146;48.140;16.304;2023-04-12T08:32:50;98867.22;;;11.68;48.86
69855;BME280;57146;48.140;16.304;2023-04-12T08:35:17;98868.53;;;11.36;48.70
69855;BME280;57146;48.140;16.304;2023-04-12T08:37:44;98871.47;;;11.34;49.56
69855;BME280;57146;48.140;16.304;2023-04-12T08:40:11;98867.44;;;11.37;50.15
69855;BME280;57146;48.140;16.304;2023-04-12T08:42:37;98860.47;;;11.41;49.97
69855;BME280;57146;48.140;16.304;2023-04-12T08:45:09;98854.97;;;11.63;51.28
69855;BME280;57146;48.140;16.304;2023-04-12T08:47:41;98850.72;;;11.80;48.01
69855;BME280;57146;48.140;16.304;2023-04-12T08:50:10;98840.78;;;11.77;47.30
69855;BME280;57146;48.140;16.304;2023-04-12T08:52:39;98846.69;;;11.73;48.00
69855;BME280;57146;48.140;16.304;2023-04-12T08:55:07;98844.53;;;11.75;47.92
69855;BME280;57146;48.140;16.304;2023-04-12T08:57:39;98837.25;;;11.72;46.39
69855;BME280;57146;48.140;16.304;2023-04-12T09:00:08;98833.41;;;11.61;47.70
69855;BME280;57146;48.140;16.304;2023-04-12T09:02:35;98837.63;;;11.54;48.19
69855;BME280;57146;48.140;16.304;2023-04-12T09:05:04;98842.88;;;11.62;48.84
69855;BME280;57146;48.140;16.304;2023-04-12T09:07:32;98832.47;;;11.66;49.21
69855;BME280;57146;48.140;16.304;2023-04-12T09:09:59;98826.75;;;11.64;49.63
69855;BME280;57146;48.140;16.304;2023-04-12T09:12:26;98813.38;;;11.69;46.94
69855;BME280;57146;48.140;16.304;2023-04-12T09:15:09;98806.81;;;11.84;46.75
69855;BME280;57146;48.140;16.304;2023-04-12T09:17:37;98795.19;;;11.85;46.42
69855;BME280;57146;48.140;16.304;2023-04-12T09:20:23;98798.72;;;11.89;47.49
69855;BME280;57146;48.140;16.304;2023-04-12T09:22:50;98795.72;;;11.99;48.27
69855;BME280;57146;48.140;16.304;2023-04-12T09:25:17;98793.94;;;12.12;48.32
69855;BME280;57146;48.140;16.304;2023-04-12T09:27:48;98790.97;;;12.13;47.66
69855;BME280;57146;48.140;16.304;2023-04-12T09:30:17;98787.69;;;12.16;47.63
69855;BME280;57146;48.140;16.304;2023-04-12T09:32:45;98778.72;;;12.09;47.18
69855;BME280;57146;48.140;16.304;2023-04-12T09:35:12;98776.22;;;12.12;46.63
69855;BME280;57146;48.140;16.304;2023-04-12T09:37:39;98766.66;;;12.08;46.15
69855;BME280;57146;48.140;16.304;2023-04-12T09:40:08;98768.91;;;12.18;47.87
69855;BME280;57146;48.140;16.304;2023-04-12T09:42:50;98776.19;;;12.21;45.34
69855;BME280;57146;48.140;16.304;2023-04-12T09:45:21;98769.88;;;12.13;43.82
69855;BME280;57146;48.140;16.304;2023-04-12T09:47:48;98759.38;;;12.05;44.58
69855;BME280;57146;48.140;16.304;2023-04-12T09:50:28;98752.03;;;11.89;43.99
69855;BME280;57146;48.140;16.304;2023-04-12T09:52:56;98752.66;;;11.86;45.82
69855;BME280;57146;48.140;16.304;2023-04-12T09:55:25;98749.88;;;11.83;45.95
69855;BME280;57146;48.140;16.304;2023-04-12T09:57:55;98742.59;;;11.80;45.21
69855;BME280;57146;48.140;16.304;2023-04-12T10:00:23;98741.66;;;11.84;45.53
69855;BME280;57146;48.140;16.304;2023-04-12T10:02:53;98735.09;;;11.90;44.95
69855;BME280;57146;48.140;16.304;2023-04-12T10:05:22;98738.09;;;11.89;45.24
69855;BME280;57146;48.140;16.304;2023-04-12T10:07:51;98731.28;;;11.79;44.26
69855;BME280;57146;48.140;16.304;2023-04-12T10:10:19;98729.59;;;11.74;44.86
69855;BME280;57146;48.140;16.304;2023-04-12T10:12:47;98720.66;;;11.67;45.96
69855;BME280;57146;48.140;16.304;2023-04-12T10:15:15;98713.97;;;11.69;46.93
69855;BME280;57146;48.140;16.304;2023-04-12T10:17:51;98711.28;;;11.78;48.10
69855;BME280;57146;48.140;16.304;2023-04-12T10:20:20;98701.63;;;11.82;45.63
69855;BME280;57146;48.140;16.304;2023-04-12T10:22:52;98708.44;;;11.92;46.59
69855;BME280;57146;48.140;16.304;2023-04-12T10:25:24;98708.16;;;11.85;45.13
69855;BME280;57146;48.140;16.304;2023-04-12T10:27:52;98700.38;;;11.88;45.59
69855;BME280;57146;48.140;16.304;2023-04-12T10:30:28;98691.81;;;11.91;45.91
69855;BME280;57146;48.140;16.304;2023-04-12T10:38:14;98688.66;;;11.98;44.03
69855;BME280;57146;48.140;16.304;2023-04-12T10:41:08;98678.19;;;12.10;41.78
69855;BME280;57146;48.140;16.304;2023-04-12T10:43:35;98674.09;;;12.13;43.81
69855;BME280;57146;48.140;16.304;2023-04-12T10:46:02;98678.44;;;12.17;44.39
69855;BME280;57146;48.140;16.304;2023-04-12T10:48:51;98667.13;;;12.29;43.25
69855;BME280;57146;48.140;16.304;2023-04-12T10:51:20;98664.97;;;12.31;44.98
69855;BME280;57146;48.140;16.304;2023-04-12T10:53:48;98664.63;;;12.33;43.97
69855;BME280;57146;48.140;16.304;2023-04-12T10:58:59;98642.22;;;12.39;43.16
69855;BME280;57146;48.140;16.304;2023-04-12T11:01:31;98646.63;;;12.47;43.55
69855;BME280;57146;48.140;16.304;2023-04-12T11:04:17;98642.34;;;12.55;42.87
69855;BME280;57146;48.140;16.304;2023-04-12T11:07:01;98646.31;;;12.61;42.00
69855;BME280;57146;48.140;16.304;2023-04-12T11:09:58;98636.53;;;12.61;41.75
69855;BME280;57146;48.140;16.304;2023-04-12T11:12:30;98630.81;;;12.72;42.25
69855;BME280;57146;48.140;16.304;2023-04-12T11:15:00;98629.19;;;12.79;42.00
69855;BME280;57146;48.140;16.304;2023-04-12T11:17:53;98622.59;;;12.85;41.37
69855;BME280;57146;48.140;16.304;2023-04-12T11:20:21;98632.50;;;12.88;41.43
69855;BME280;57146;48.140;16.304;2023-04-12T11:22:52;98619.63;;;12.99;42.70
69855;BME280;57146;48.140;16.304;2023-04-12T11:25:23;98619.06;;;13.06;42.45
69855;BME280;57146;48.140;16.304;2023-04-12T11:27:50;98608.38;;;13.02;40.79
69855;BME280;57146;48.140;16.304;2023-04-12T11:30:18;98611.47;;;13.04;43.36
69855;BME280;57146;48.140;16.304;2023-04-12T11:32:45;98605.31;;;13.25;41.58
69855;BME280;57146;48.140;16.304;2023-04-12T11:35:14;98596.25;;;13.13;41.67
69855;BME280;57146;48.140;16.304;2023-04-12T11:37:42;98595.81;;;12.87;42.82
69855;BME280;57146;48.140;16.304;2023-04-12T11:40:10;98589.25;;;12.81;42.57
69855;BME280;57146;48.140;16.304;2023-04-12T11:42:38;98583.41;;;13.00;44.32
69855;BME280;57146;48.140;16.304;2023-04-12T11:45:05;98589.00;;;13.10;41.12
69855;BME280;57146;48.140;16.304;2023-04-12T11:47:42;98580.94;;;13.19;41.98
69855;BME280;57146;48.140;16.304;2023-04-12T11:50:09;98574.47;;;13.16;41.10
69855;BME280;57146;48.140;16.304;2023-04-12T11:52:36;98573.22;;;13.38;42.39
69855;BME280;57146;48.140;16.304;2023-04-12T11:55:04;98567.09;;;13.34;40.80
69855;BME280;57146;48.140;16.304;2023-04-12T11:57:31;98569.03;;;13.37;42.47
69855;BME280;57146;48.140;16.304;2023-04-12T11:59:59;98566.63;;;13.32;42.25
69855;BME280;57146;48.140;16.304;2023-04-12T12:02:26;98558.34;;;13.34;43.29
69855;BME280;57146;48.140;16.304;2023-04-12T12:05:00;98560.72;;;13.51;42.29
69855;BME280;57146;48.140;16.304;2023-04-12T12:07:27;98559.34;;;13.41;40.86
69855;BME280;57146;48.140;16.304;2023-04-12T12:09:55;98549.97;;;13.44;40.58
69855;BME280;57146;48.140;16.304;2023-04-12T12:12:22;98556.59;;;13.38;40.38
69855;BME280;57146;48.140;16.304;2023-04-12T12:14:49;98552.47;;;13.53;40.81
69855;BME280;57146;48.140;16.304;2023-04-12T12:17:16;98552.97;;;13.30;40.79
69855;BME280;57146;48.140;16.304;2023-04-12T12:19:44;98535.69;;;13.21;41.99
69855;BME280;57146;48.140;16.304;2023-04-12T12:24:59;98525.78;;;13.30;40.32
69855;BME280;57146;48.140;16.304;2023-04-12T12:27:38;98523.00;;;13.38;40.78
69855;BME280;57146;48.140;16.304;2023-04-12T12:30:08;98518.44;;;13.51;41.20
69855;BME280;57146;48.140;16.304;2023-04-12T12:32:37;98520.00;;;13.40;41.37
69855;BME280;57146;48.140;16.304;2023-04-12T12:35:09;98510.34;;;13.32;41.77
69855;BME280;57146;48.140;16.304;2023-04-12T12:37:52;98512.56;;;13.30;41.27
69855;BME280;57146;48.140;16.304;2023-04-12T12:40:28;98501.66;;;13.19;40.41
69855;BME280;57146;48.140;16.304;2023-04-12T12:42:55;98507.97;;;13.14;40.81
69855;BME280;57146;48.140;16.304;2023-04-12T12:45:24;98502.38;;;13.04;41.29
69855;BME280;57146;48.140;16.304;2023-04-12T12:48:01;98496.94;;;13.12;41.05
69855;BME280;57146;48.140;16.304;2023-04-12T12:50:32;98486.97;;;13.06;40.58
69855;BME280;57146;48.140;16.304;2023-04-12T12:53:00;98481.53;;;13.14;40.00
69855;BME280;57146;48.140;16.304;2023-04-12T12:55:31;98483.81;;;13.16;40.91
69855;BME280;57146;48.140;16.304;2023-04-12T12:57:59;98486.88;;;13.02;40.15
69855;BME280;57146;48.140;16.304;2023-04-12T13:00:28;98482.25;;;12.99;41.61
69855;BME280;57146;48.140;16.304;2023-04-12T13:02:55;98470.09;;;13.10;40.41
69855;BME280;57146;48.140;16.304;2023-04-12T13:05:23;98469.00;;;13.11;41.98
69855;BME280;57146;48.140;16.304;2023-04-12T13:08:15;98467.47;;;13.10;40.91
69855;BME280;57146;48.140;16.304;2023-04-12T13:10:42;98456.84;;;13.23;41.08
69855;BME280;57146;48.140;16.304;2023-04-12T13:13:08;98456.19;;;13.26;40.81
69855;BME280;57146;48.140;16.304;2023-04-12T13:15:37;98456.28;;;13.29;41.27
69855;BME280;57146;48.140;16.304;2023-04-12T13:18:03;98444.03;;;13.37;41.73
69855;BME280;57146;48.140;16.304;2023-04-12T13:20:32;98445.81;;;13.33;40.70
69855;BME280;57146;48.140;16.304;2023-04-12T13:22:59;98449.78;;;13.27;40.41
69855;BME280;57146;48.140;16.304;2023-04-12T13:25:28;98442.66;;;13.27;40.91
69855;BME280;57146;48.140;16.304;2023-04-12T13:27:55;98429.00;;;13.25;40.97